Time;durP1;ratioP1;P1;durP2;ratioP2;P2;SDS_P1;SDS_P2;PMS_P1;PMS_P2;Temp;Humidity;BMP_temperature;BMP_pressure;BME280_temperature;BME280_humidity;BME280_pressure;Samples;Min_cycle;Max_cycle;Signal;HPM_P1;HPM_P2
2023/04/09 00:01:18;;;;;;;6.70;4.50;;;;;;;;;;107832;279;38752;-29
2023/04/09 00:03:56;;;;;;;6.80;4.90;;;;;;;;;;107864;279;39717;-30
2023/04/09 00:06:30;;;;;;;6.50;4.40;;;;;;;;;;107812;279;43012;-29
2023/04/09 00:09:08;;;;;;;7.00;4.60;;;;;;;;;;107857;279;42213;-29
2023/04/09 00:11:45;;;;;;;7.10;4.50;;;;;;;;;;107845;279;38788;-29
2023/04/09 00:14:21;;;;;;;7.30;4.70;;;;;;;;;;107839;272;39903;-29
2023/04/09 00:16:55;;;;;;;6.50;4.60;;;;;;;;;;107805;272;48723;-29
2023/04/09 00:19:32;;;;;;;6.70;4.70;;;;;;;;;;107849;272;42394;-29
2023/04/09 00:22:08;;;;;;;6.30;4.70;;;;;;;;;;107849;279;38875;-29
2023/04/09 00:24:46;;;;;;;6.50;4.40;;;;;;;;;;107731;279;175707;-29
2023/04/09 00:27:26;;;;;;;7.20;4.70;;;;;;;;;;107825;279;49147;-29
2023/04/09 00:30:02;;;;;;;7.20;4.70;;;;;;;;;;107807;272;42226;-29
2023/04/09 00:32:40;;;;;;;6.50;4.60;;;;;;;;;;107832;275;38765;-29
2023/04/09 00:35:17;;;;;;;6.50;4.30;;;;;;;;;;107802;279;39889;-29
2023/04/09 00:37:54;;;;;;;6.10;4.20;;;;;;;;;;107829;272;42988;-29
2023/04/09 00:40:31;;;;;;;6.20;4.10;;;;;;;;;;107815;272;42194;-29
2023/04/09 00:43:06;;;;;;;7.00;4.70;;;;;;;;;;107824;279;38766;-29
2023/04/09 00:45:41;;;;;;;5.60;4.10;;;;;;;;;;107839;279;39757;-29
2023/04/09 00:48:19;;;;;;;6.20;4.60;;;;;;;;;;107818;279;42875;-29
2023/04/09 00:50:55;;;;;;;6.00;4.50;;;;;;;;;;107820;272;44102;-29
2023/04/09 00:53:29;;;;;;;6.70;4.70;;;;;;;;;;107836;275;37805;-29
2023/04/09 00:56:04;;;;;;;6.80;4.40;;;;;;;;;;107835;279;39805;-30
2023/04/09 00:58:40;;;;;;;6.60;4.70;;;;;;;;;;107881;272;42997;-30
2023/04/09 01:01:17;;;;;;;6.30;4.50;;;;;;;;;;107837;279;42157;-30
2023/04/09 01:03:53;;;;;;;6.10;4.50;;;;;;;;;;107838;279;38890;-30
2023/04/09 01:06:39;;;;;;;5.70;4.40;;;;;;;;;;107778;279;39848;-30
2023/04/09 01:09:27;;;;;;;6.20;4.40;;;;;;;;;;107838;279;43241;-28
2023/04/09 01:12:14;;;;;;;5.80;4.30;;;;;;;;;;107829;271;41952;-28
2023/04/09 01:14:57;;;;;;;5.90;4.40;;;;;;;;;;107853;271;39958;-29
2023/04/09 01:17:41;;;;;;;5.90;4.30;;;;;;;;;;107826;272;40876;-29
2023/04/09 01:20:33;;;;;;;5.40;3.90;;;;;;;;;;107853;272;42991;-29
2023/04/09 01:23:24;;;;;;;5.70;4.20;;;;;;;;;;107859;279;42156;-29
2023/04/09 01:26:07;;;;;;;6.00;4.40;;;;;;;;;;107829;272;38961;-29
2023/04/09 01:28:49;;;;;;;5.90;4.40;;;;;;;;;;107857;279;46983;-29
2023/04/09 01:31:25;;;;;;;;;;;;;;;;;;107837;279;43014;-29
2023/04/09 01:34:02;;;;;;;5.70;4.10;;;;;;;;;;107816;271;41852;-29
2023/04/09 01:36:43;;;;;;;5.90;4.20;;;;;;;;;;107803;279;38769;-29
2023/04/09 01:39:19;;;;;;;5.90;4.50;;;;;;;;;;107402;273;559730;-29
2023/04/09 01:41:55;;;;;;;6.00;4.30;;;;;;;;;;107848;272;43082;-29
2023/04/09 01:44:31;;;;;;;6.00;4.60;;;;;;;;;;107829;272;41901;-29
2023/04/09 01:47:06;;;;;;;5.80;4.40;;;;;;;;;;107813;279;38844;-29
2023/04/09 01:49:43;;;;;;;5.80;4.20;;;;;;;;;;107861;271;39512;-29
2023/04/09 01:52:18;;;;;;;6.00;4.60;;;;;;;;;;107871;271;42645;-29
2023/04/09 01:54:56;;;;;;;6.10;4.40;;;;;;;;;;107827;272;42206;-29
2023/04/09 01:57:30;;;;;;;5.80;4.40;;;;;;;;;;107804;279;38536;-29
2023/04/09 02:00:05;;;;;;;5.80;4.20;;;;;;;;;;107867;272;39840;-29
2023/04/09 02:02:49;;;;;;;5.70;4.20;;;;;;;;;;107865;279;42665;-29
2023/04/09 02:05:32;;;;;;;6.00;4.40;;;;;;;;;;107838;272;42153;-29
2023/04/09 02:08:09;;;;;;;5.90;4.30;;;;;;;;;;107808;279;38894;-29
2023/04/09 02:10:52;;;;;;;5.60;4.10;;;;;;;;;;107862;272;39440;-29
2023/04/09 02:13:27;;;;;;;5.70;4.20;;;;;;;;;;107841;272;42876;-29
2023/04/09 02:16:06;;;;;;;6.20;4.30;;;;;;;;;;107846;284;42191;-29
2023/04/09 02:18:40;;;;;;;6.00;4.50;;;;;;;;;;107819;279;38760;-29
2023/04/09 02:21:16;;;;;;;5.90;4.50;;;;;;;;;;107822;272;41098;-29
2023/04/09 02:23:52;;;;;;;5.70;4.40;;;;;;;;;;107818;279;44131;-29
2023/04/09 02:26:29;;;;;;;5.70;4.40;;;;;;;;;;107869;272;43246;-29
2023/04/09 02:29:04;;;;;;;6.00;4.40;;;;;;;;;;107817;272;38818;-29
2023/04/09 02:31:38;;;;;;;5.80;4.50;;;;;;;;;;107877;279;39696;-29
2023/04/09 02:34:15;;;;;;;6.10;4.30;;;;;;;;;;107839;279;42884;-29
2023/04/09 02:36:49;;;;;;;5.70;4.30;;;;;;;;;;107837;279;42150;-29
2023/04/09 02:39:24;;;;;;;5.50;4.20;;;;;;;;;;107786;272;38834;-29
2023/04/09 02:41:58;;;;;;;6.10;4.30;;;;;;;;;;107817;279;39746;-29
2023/04/09 02:44:32;;;;;;;5.60;4.40;;;;;;;;;;107866;275;42921;-29
2023/04/09 02:47:06;;;;;;;5.90;4.50;;;;;;;;;;107879;272;42246;-29
2023/04/09 02:49:42;;;;;;;5.40;4.20;;;;;;;;;;107803;279;39033;-28
2023/04/09 02:52:19;;;;;;;5.70;4.40;;;;;;;;;;107855;279;39690;-28
2023/04/09 02:54:55;;;;;;;5.60;4.20;;;;;;;;;;107843;272;42831;-28
2023/04/09 02:57:32;;;;;;;6.00;4.50;;;;;;;;;;107855;272;42259;-28
2023/04/09 03:00:08;;;;;;;5.40;4.10;;;;;;;;;;107808;272;39030;-28
2023/04/09 03:02:43;;;;;;;5.50;4.10;;;;;;;;;;107862;272;39656;-28
2023/04/09 03:05:21;;;;;;;5.60;4.20;;;;;;;;;;107835;279;42937;-28
2023/04/09 03:07:59;;;;;;;5.50;4.10;;;;;;;;;;107824;279;42214;-28
2023/04/09 03:10:33;;;;;;;5.30;3.90;;;;;;;;;;107818;272;44756;-28
2023/04/09 03:13:09;;;;;;;5.60;4.20;;;;;;;;;;107847;279;39833;-28
2023/04/09 03:15:44;;;;;;;5.50;4.20;;;;;;;;;;107815;279;42634;-28
2023/04/09 03:18:19;;;;;;;5.80;4.40;;;;;;;;;;107835;284;42253;-28
2023/04/09 03:20:59;;;;;;;5.30;4.10;;;;;;;;;;107979;272;44910;-28
2023/04/09 03:23:33;;;;;;;5.60;4.30;;;;;;;;;;107865;272;39768;-28
2023/04/09 03:26:11;;;;;;;5.80;4.20;;;;;;;;;;107840;279;43007;-28
2023/04/09 03:28:47;;;;;;;5.70;4.10;;;;;;;;;;107806;279;42163;-28
2023/04/09 03:31:23;;;;;;;5.90;4.20;;;;;;;;;;107840;279;44957;-28
2023/04/09 03:33:59;;;;;;;5.90;4.10;;;;;;;;;;107841;272;40789;-28
2023/04/09 03:36:34;;;;;;;6.10;4.40;;;;;;;;;;107829;279;43177;-28
2023/04/09 03:39:09;;;;;;;5.60;4.30;;;;;;;;;;107828;272;42238;-28
2023/04/09 03:41:46;;;;;;;5.80;4.30;;;;;;;;;;107857;279;38921;-28
2023/04/09 03:44:20;;;;;;;5.70;4.40;;;;;;;;;;107823;272;40194;-28
2023/04/09 03:46:55;;;;;;;5.40;4.10;;;;;;;;;;107837;279;43137;-28
2023/04/09 03:49:30;;;;;;;6.00;4.40;;;;;;;;;;107824;279;42145;-28
2023/04/09 03:52:07;;;;;;;5.70;4.10;;;;;;;;;;107841;272;39792;-28
2023/04/09 03:54:43;;;;;;;5.60;3.80;;;;;;;;;;107860;279;39904;-28
2023/04/09 03:57:18;;;;;;;5.80;4.10;;;;;;;;;;107861;275;43690;-28
2023/04/09 03:59:54;;;;;;;5.40;3.80;;;;;;;;;;107785;279;42505;-28
2023/04/09 04:02:32;;;;;;;5.40;4.20;;;;;;;;;;107846;279;38869;-28
2023/04/09 04:05:07;;;;;;;5.30;4.10;;;;;;;;;;107823;272;39663;-28
2023/04/09 04:07:43;;;;;;;5.80;4.20;;;;;;;;;;107830;272;42671;-28
2023/04/09 04:10:20;;;;;;;5.70;4.10;;;;;;;;;;107838;272;43290;-28
2023/04/09 04:12:55;;;;;;;5.70;4.10;;;;;;;;;;107823;272;38813;-28
2023/04/09 04:15:30;;;;;;;5.00;3.80;;;;;;;;;;107829;279;39759;-28
2023/04/09 04:18:06;;;;;;;5.60;4.20;;;;;;;;;;107835;272;43246;-28
2023/04/09 04:20:43;;;;;;;5.70;3.90;;;;;;;;;;107796;279;42132;-28
2023/04/09 04:23:20;;;;;;;5.20;3.90;;;;;;;;;;107839;271;38990;-28
2023/04/09 04:25:56;;;;;;;5.30;4.10;;;;;;;;;;107851;272;40339;-28
2023/04/09 04:28:34;;;;;;;7.20;3.90;;;;;;;;;;107841;279;42899;-28
2023/04/09 04:31:14;;;;;;;5.40;4.00;;;;;;;;;;107651;279;175707;-28
2023/04/09 04:33:49;;;;;;;5.20;3.80;;;;;;;;;;107841;272;38840;-28
2023/04/09 04:36:27;;;;;;;5.80;4.10;;;;;;;;;;107799;272;39478;-28
2023/04/09 04:39:03;;;;;;;6.60;4.20;;;;;;;;;;107818;279;42853;-28
2023/04/09 04:41:38;;;;;;;5.50;4.10;;;;;;;;;;107801;271;42422;-28
2023/04/09 04:44:12;;;;;;;5.40;3.90;;;;;;;;;;107847;279;38824;-28
2023/04/09 04:46:46;;;;;;;5.00;3.60;;;;;;;;;;107856;279;39808;-28
2023/04/09 04:49:21;;;;;;;5.50;4.30;;;;;;;;;;107825;279;42977;-28
2023/04/09 04:51:57;;;;;;;5.40;4.10;;;;;;;;;;107805;279;42343;-28
2023/04/09 04:54:32;;;;;;;5.70;4.00;;;;;;;;;;107877;272;38612;-28
2023/04/09 04:57:10;;;;;;;5.60;3.90;;;;;;;;;;107836;279;39864;-28
2023/04/09 04:59:44;;;;;;;5.80;4.00;;;;;;;;;;107873;271;42880;-28
2023/04/09 05:02:17;;;;;;;5.10;3.90;;;;;;;;;;107796;279;42250;-28
2023/04/09 05:04:53;;;;;;;5.60;4.10;;;;;;;;;;107861;272;40041;-28
2023/04/09 05:07:28;;;;;;;6.00;4.00;;;;;;;;;;107831;279;40867;-28
2023/04/09 05:10:03;;;;;;;5.70;4.20;;;;;;;;;;107825;271;42622;-28
2023/04/09 05:12:42;;;;;;;5.00;3.80;;;;;;;;;;107802;275;43375;-28
2023/04/09 05:15:18;;;;;;;5.30;3.60;;;;;;;;;;107847;271;40080;-28
2023/04/09 05:17:53;;;;;;;4.90;3.70;;;;;;;;;;107808;279;39758;-28
2023/04/09 05:20:32;;;;;;;5.00;3.70;;;;;;;;;;107862;279;43079;-28
2023/04/09 05:23:11;;;;;;;5.30;3.80;;;;;;;;;;107670;271;175730;-28
2023/04/09 05:25:45;;;;;;;5.30;3.60;;;;;;;;;;107854;272;38759;-28
2023/04/09 05:28:20;;;;;;;5.00;3.90;;;;;;;;;;107738;279;175765;-28
2023/04/09 05:30:56;;;;;;;5.50;3.90;;;;;;;;;;107718;271;175731;-28
2023/04/09 05:33:36;;;;;;;5.60;4.10;;;;;;;;;;107830;279;42140;-28
2023/04/09 05:36:16;;;;;;;5.20;3.90;;;;;;;;;;107834;271;38784;-28
2023/04/09 05:38:53;;;;;;;5.00;3.70;;;;;;;;;;107819;272;39493;-28
2023/04/09 05:41:31;;;;;;;4.80;3.60;;;;;;;;;;107742;271;175755;-28
2023/04/09 05:44:07;;;;;;;5.20;3.70;;;;;;;;;;107821;272;48518;-28
2023/04/09 05:46:42;;;;;;;5.00;3.80;;;;;;;;;;107828;279;39894;-28
2023/04/09 05:49:17;;;;;;;5.20;3.70;;;;;;;;;;107850;272;40904;-28
2023/04/09 05:51:52;;;;;;;5.00;3.40;;;;;;;;;;107782;279;44089;-28
2023/04/09 05:54:27;;;;;;;5.40;3.60;;;;;;;;;;107837;279;48506;-28
2023/04/09 05:57:01;;;;;;;4.90;3.30;;;;;;;;;;107827;279;38554;-28
2023/04/09 05:59:36;;;;;;;5.40;3.70;;;;;;;;;;107839;275;39831;-28
2023/04/09 06:02:12;;;;;;;5.10;3.70;;;;;;;;;;107797;279;44496;-28
2023/04/09 06:04:46;;;;;;;5.30;3.60;;;;;;;;;;107831;272;49488;-28
2023/04/09 06:07:21;;;;;;;5.30;3.80;;;;;;;;;;107802;272;39073;-28
2023/04/09 06:09:57;;;;;;;5.20;3.80;;;;;;;;;;107826;279;39793;-28
2023/04/09 06:12:32;;;;;;;5.10;3.60;;;;;;;;;;107795;279;42906;-28
2023/04/09 06:15:07;;;;;;;5.20;3.50;;;;;;;;;;107823;272;49577;-28
2023/04/09 06:17:43;;;;;;;5.20;3.40;;;;;;;;;;107875;272;39914;-28
2023/04/09 06:20:21;;;;;;;4.70;3.40;;;;;;;;;;107839;272;39723;-28
2023/04/09 06:22:59;;;;;;;6.00;3.70;;;;;;;;;;107806;279;42889;-28
2023/04/09 06:25:35;;;;;;;6.30;3.90;;;;;;;;;;107829;279;42157;-28
2023/04/09 06:28:11;;;;;;;8.20;3.80;;;;;;;;;;107840;279;38589;-28
2023/04/09 06:30:47;;;;;;;7.20;4.20;;;;;;;;;;107825;279;39467;-28
2023/04/09 06:33:24;;;;;;;6.60;4.00;;;;;;;;;;107795;279;43919;-28
2023/04/09 06:36:02;;;;;;;6.70;3.80;;;;;;;;;;107843;279;42135;-28
2023/04/09 06:38:38;;;;;;;7.00;4.00;;;;;;;;;;107838;272;40100;-28
2023/04/09 06:41:15;;;;;;;6.10;3.90;;;;;;;;;;107824;272;39733;-28
2023/04/09 06:43:51;;;;;;;6.50;3.60;;;;;;;;;;107831;279;44171;-28
2023/04/09 06:46:28;;;;;;;5.50;3.70;;;;;;;;;;107710;272;195468;-28
2023/04/09 06:49:04;;;;;;;6.70;4.00;;;;;;;;;;107831;272;38800;-28
2023/04/09 06:51:39;;;;;;;5.50;3.80;;;;;;;;;;105595;272;3010797;-28
2023/04/09 06:54:15;;;;;;;6.80;4.00;;;;;;;;;;107799;272;43257;-28
2023/04/09 06:56:52;;;;;;;6.00;3.50;;;;;;;;;;107734;279;175707;-28
2023/04/09 06:59:29;;;;;;;5.70;3.90;;;;;;;;;;107826;276;38809;-28
2023/04/09 07:02:03;;;;;;;6.10;3.60;;;;;;;;;;107823;279;39744;-28
2023/04/09 07:04:38;;;;;;;6.60;3.80;;;;;;;;;;107813;279;44056;-28
2023/04/09 07:07:13;;;;;;;5.40;3.60;;;;;;;;;;107821;279;42130;-28
2023/04/09 07:09:50;;;;;;;6.30;3.80;;;;;;;;;;107874;272;38995;-28
2023/04/09 07:12:31;;;;;;;6.20;3.50;;;;;;;;;;107828;279;39890;-28
2023/04/09 07:15:08;;;;;;;6.80;4.00;;;;;;;;;;107858;279;43625;-28
2023/04/09 07:17:42;;;;;;;5.40;3.60;;;;;;;;;;107852;272;42144;-28
2023/04/09 07:20:17;;;;;;;5.40;3.80;;;;;;;;;;107842;279;38768;-28
2023/04/09 07:22:55;;;;;;;6.20;3.90;;;;;;;;;;107832;280;40864;-28
2023/04/09 07:25:30;;;;;;;6.00;3.70;;;;;;;;;;107789;272;44955;-28
2023/04/09 07:28:08;;;;;;;5.50;3.60;;;;;;;;;;107835;279;42153;-28
2023/04/09 07:30:45;;;;;;;5.90;3.80;;;;;;;;;;107833;279;38870;-28
2023/04/09 07:33:21;;;;;;;6.00;3.80;;;;;;;;;;107825;279;39694;-28
2023/04/09 07:35:56;;;;;;;5.40;3.60;;;;;;;;;;107820;279;44078;-28
2023/04/09 07:38:31;;;;;;;6.10;3.90;;;;;;;;;;107867;279;42162;-28
2023/04/09 07:41:05;;;;;;;5.90;3.70;;;;;;;;;;107839;279;38512;-28
2023/04/09 07:43:42;;;;;;;5.60;3.90;;;;;;;;;;107811;279;39726;-28
2023/04/09 07:46:21;;;;;;;5.60;3.90;;;;;;;;;;107784;272;42644;-28
2023/04/09 07:48:58;;;;;;;6.00;3.70;;;;;;;;;;107852;272;43043;-28
2023/04/09 07:51:32;;;;;;;5.20;3.50;;;;;;;;;;107839;279;38926;-28
2023/04/09 07:54:07;;;;;;;5.80;4.00;;;;;;;;;;107820;279;39674;-28
2023/04/09 07:56:43;;;;;;;5.00;3.70;;;;;;;;;;107776;272;42890;-28
2023/04/09 07:59:19;;;;;;;5.50;3.90;;;;;;;;;;107844;272;42235;-28
2023/04/09 08:01:57;;;;;;;5.10;3.70;;;;;;;;;;107839;272;38862;-28
2023/04/09 08:04:32;;;;;;;6.00;3.80;;;;;;;;;;107860;279;39676;-30
2023/04/09 08:07:06;;;;;;;6.40;3.70;;;;;;;;;;107937;277;42804;-30
2023/04/09 08:09:46;;;;;;;5.80;3.70;;;;;;;;;;107849;272;42206;-30
2023/04/09 08:12:21;;;;;;;5.70;3.60;;;;;;;;;;107813;279;39032;-30
2023/04/09 08:14:56;;;;;;;6.20;3.90;;;;;;;;;;107847;279;39858;-30
2023/04/09 08:17:31;;;;;;;5.60;3.70;;;;;;;;;;107819;277;49499;-30
2023/04/09 08:20:06;;;;;;;5.30;3.80;;;;;;;;;;107818;279;42294;-30
2023/04/09 08:22:42;;;;;;;5.10;3.80;;;;;;;;;;107862;279;38783;-31
2023/04/09 08:25:18;;;;;;;5.70;3.80;;;;;;;;;;107792;279;40018;-31
2023/04/09 08:27:52;;;;;;;5.80;4.00;;;;;;;;;;107831;279;50307;-31
2023/04/09 08:30:26;;;;;;;5.60;3.90;;;;;;;;;;107830;272;42154;-30
2023/04/09 08:33:04;;;;;;;5.40;3.90;;;;;;;;;;107817;279;39953;-30
2023/04/09 08:35:39;;;;;;;5.60;3.90;;;;;;;;;;107755;279;39433;-31
2023/04/09 08:38:15;;;;;;;5.60;3.80;;;;;;;;;;107824;271;51248;-31
2023/04/09 08:40:53;;;;;;;5.50;4.20;;;;;;;;;;107847;279;42168;-31
2023/04/09 08:43:31;;;;;;;5.20;3.90;;;;;;;;;;107823;279;40834;-31
2023/04/09 08:46:26;;;;;;;5.50;3.90;;;;;;;;;;107807;272;40000;-31
2023/04/09 08:49:03;;;;;;;5.50;3.90;;;;;;;;;;107851;275;43086;-31
2023/04/09 08:51:39;;;;;;;5.70;4.00;;;;;;;;;;107848;272;42225;-31
2023/04/09 08:54:18;;;;;;;6.00;3.80;;;;;;;;;;107877;277;38827;-31
2023/04/09 08:56:55;;;;;;;5.60;3.80;;;;;;;;;;107128;279;895932;-31
2023/04/09 08:59:35;;;;;;;5.30;3.60;;;;;;;;;;107813;279;42887;-31
2023/04/09 09:02:13;;;;;;;5.60;3.90;;;;;;;;;;107842;272;42163;-31
2023/04/09 09:04:53;;;;;;;5.80;4.00;;;;;;;;;;107852;272;38738;-31
2023/04/09 09:07:31;;;;;;;5.60;3.80;;;;;;;;;;107814;271;40974;-31
2023/04/09 09:10:07;;;;;;;5.40;3.80;;;;;;;;;;107814;279;43347;-31
2023/04/09 09:12:46;;;;;;;5.50;3.70;;;;;;;;;;107882;272;42180;-31
2023/04/09 09:15:31;;;;;;;5.70;3.90;;;;;;;;;;107859;277;40005;-31
2023/04/09 09:18:08;;;;;;;5.40;3.60;;;;;;;;;;107786;271;39668;-31
2023/04/09 09:20:46;;;;;;;5.30;3.70;;;;;;;;;;107836;279;44023;-31
2023/04/09 09:23:39;;;;;;;5.30;3.80;;;;;;;;;;107840;279;42147;-31
2023/04/09 09:26:18;;;;;;;5.30;3.90;;;;;;;;;;107837;272;38777;-31
2023/04/09 09:28:55;;;;;;;5.50;3.80;;;;;;;;;;107797;279;39532;-31
2023/04/09 09:31:34;;;;;;;5.50;3.90;;;;;;;;;;107818;271;42845;-31
2023/04/09 09:34:15;;;;;;;5.20;3.60;;;;;;;;;;107835;272;41958;-30
2023/04/09 09:36:50;;;;;;;5.40;3.60;;;;;;;;;;107839;272;38792;-30
2023/04/09 09:39:45;;;;;;;5.50;3.50;;;;;;;;;;107456;279;519367;-29
2023/04/09 09:42:20;;;;;;;5.00;3.70;;;;;;;;;;107848;279;43004;-29
2023/04/09 09:44:58;;;;;;;5.50;3.90;;;;;;;;;;107833;277;42197;-29
2023/04/09 09:47:39;;;;;;;5.20;3.70;;;;;;;;;;107785;279;38926;-29
2023/04/09 09:50:15;;;;;;;5.20;3.50;;;;;;;;;;107164;279;895728;-29
2023/04/09 09:52:52;;;;;;;5.00;3.70;;;;;;;;;;107824;279;42891;-29
2023/04/09 09:55:29;;;;;;;5.00;3.40;;;;;;;;;;107837;275;42145;-29
2023/04/09 09:58:12;;;;;;;5.30;3.90;;;;;;;;;;107825;272;38876;-29
2023/04/09 10:00:51;;;;;;;5.30;3.60;;;;;;;;;;107821;279;39674;-29
2023/04/09 10:03:32;;;;;;;5.20;3.90;;;;;;;;;;107833;279;42856;-29
2023/04/09 10:06:07;;;;;;;5.30;3.50;;;;;;;;;;107821;279;42341;-30
2023/04/09 10:08:46;;;;;;;4.90;3.60;;;;;;;;;;107846;272;39905;-30
2023/04/09 10:11:23;;;;;;;5.00;3.60;;;;;;;;;;107858;279;40368;-30
2023/04/09 10:14:01;;;;;;;5.80;4.00;;;;;;;;;;107837;272;42904;-29
2023/04/09 10:16:39;;;;;;;5.40;3.80;;;;;;;;;;107845;272;42282;-29
2023/04/09 10:19:15;;;;;;;5.00;3.70;;;;;;;;;;107821;271;39811;-29
2023/04/09 10:21:56;;;;;;;5.50;3.70;;;;;;;;;;107846;271;39712;-29
2023/04/09 10:24:32;;;;;;;5.40;3.80;;;;;;;;;;107865;279;42876;-29
2023/04/09 10:27:14;;;;;;;5.10;3.70;;;;;;;;;;107837;279;42280;-29
2023/04/09 10:29:52;;;;;;;5.60;3.50;;;;;;;;;;107829;272;40007;-29
2023/04/09 10:32:38;;;;;;;5.20;3.60;;;;;;;;;;107808;279;39855;-29
2023/04/09 10:35:26;;;;;;;5.50;3.70;;;;;;;;;;107820;272;42841;-29
2023/04/09 10:38:05;;;;;;;5.10;3.70;;;;;;;;;;107834;275;43332;-29
2023/04/09 10:40:42;;;;;;;5.20;3.70;;;;;;;;;;107854;272;45091;-29
2023/04/09 10:43:22;;;;;;;5.00;3.70;;;;;;;;;;107836;279;40898;-29
2023/04/09 10:46:00;;;;;;;5.20;3.70;;;;;;;;;;107835;279;42988;-29
2023/04/09 10:48:38;;;;;;;4.90;3.70;;;;;;;;;;107797;279;42189;-29
2023/04/09 10:51:22;;;;;;;5.00;3.80;;;;;;;;;;107838;272;38904;-29
2023/04/09 10:53:57;;;;;;;5.60;3.70;;;;;;;;;;107842;279;39775;-29
2023/04/09 10:56:32;;;;;;;5.30;3.80;;;;;;;;;;107700;275;175650;-29
2023/04/09 10:59:08;;;;;;;5.30;3.60;;;;;;;;;;107808;272;42182;-29
2023/04/09 11:01:55;;;;;;;5.20;3.60;;;;;;;;;;107832;275;38756;-29
2023/04/09 11:04:41;;;;;;;5.40;3.70;;;;;;;;;;107810;279;39775;-29
2023/04/09 11:07:18;;;;;;;5.30;3.90;;;;;;;;;;107923;279;42980;-29
2023/04/09 11:09:54;;;;;;;5.20;3.80;;;;;;;;;;107825;276;42133;-29
2023/04/09 11:12:31;;;;;;;5.20;3.90;;;;;;;;;;107848;279;38516;-29
2023/04/09 11:15:07;;;;;;;5.00;3.70;;;;;;;;;;107829;279;39731;-29
2023/04/09 11:17:45;;;;;;;5.30;3.80;;;;;;;;;;107846;272;42953;-29
2023/04/09 11:20:25;;;;;;;5.40;3.90;;;;;;;;;;107804;272;42233;-29
2023/04/09 11:23:04;;;;;;;5.20;4.00;;;;;;;;;;107841;279;38807;-29
2023/04/09 11:25:40;;;;;;;6.50;3.80;;;;;;;;;;107826;279;39682;-29
2023/04/09 11:28:15;;;;;;;5.10;3.80;;;;;;;;;;107842;272;43009;-29
2023/04/09 11:30:53;;;;;;;4.80;3.70;;;;;;;;;;107799;272;42323;-29
2023/04/09 11:33:34;;;;;;;5.10;3.70;;;;;;;;;;107862;279;38582;-29
2023/04/09 11:36:09;;;;;;;5.00;3.90;;;;;;;;;;107840;275;39730;-29
2023/04/09 11:38:48;;;;;;;5.30;3.80;;;;;;;;;;107822;279;45031;-29
2023/04/09 11:41:34;;;;;;;5.10;3.60;;;;;;;;;;107807;279;42147;-29
2023/04/09 11:44:12;;;;;;;4.90;3.60;;;;;;;;;;107852;272;38901;-29
2023/04/09 11:46:46;;;;;;;5.20;3.90;;;;;;;;;;107820;272;39923;-29
2023/04/09 11:49:20;;;;;;;5.20;3.80;;;;;;;;;;107809;279;42944;-29
2023/04/09 11:51:57;;;;;;;5.70;3.90;;;;;;;;;;107956;279;47737;-29
2023/04/09 11:54:35;;;;;;;5.60;3.80;;;;;;;;;;107855;272;38880;-29
2023/04/09 11:57:10;;;;;;;5.40;3.80;;;;;;;;;;107842;272;39489;-29
2023/04/09 11:59:46;;;;;;;5.60;3.70;;;;;;;;;;107847;279;42613;-29
2023/04/09 12:02:24;;;;;;;5.20;4.00;;;;;;;;;;107821;272;49337;-29
2023/04/09 12:05:08;;;;;;;5.60;3.90;;;;;;;;;;107869;272;39113;-29
2023/04/09 12:07:47;;;;;;;5.60;4.10;;;;;;;;;;107842;272;39830;-29
2023/04/09 12:10:35;;;;;;;5.40;4.10;;;;;;;;;;107796;272;44068;-29
2023/04/09 12:13:13;;;;;;;4.90;3.40;;;;;;;;;;107838;279;42488;-29
2023/04/09 12:15:50;;;;;;;5.70;3.90;;;;;;;;;;107819;272;38782;-29
2023/04/09 12:18:26;;;;;;;5.00;3.60;;;;;;;;;;107870;272;39707;-29
2023/04/09 12:21:01;;;;;;;5.30;3.70;;;;;;;;;;107820;279;42873;-29
2023/04/09 12:23:38;;;;;;;5.00;3.70;;;;;;;;;;107854;272;42235;-29
2023/04/09 12:26:12;;;;;;;5.80;3.90;;;;;;;;;;107852;279;38787;-29
2023/04/09 12:28:48;;;;;;;5.70;3.80;;;;;;;;;;107855;279;39806;-29
2023/04/09 12:31:22;;;;;;;5.40;3.60;;;;;;;;;;107813;272;43082;-29
2023/04/09 12:33:58;;;;;;;5.00;3.60;;;;;;;;;;107812;271;43366;-29
2023/04/09 12:36:38;;;;;;;5.60;3.80;;;;;;;;;;107821;279;39766;-29
2023/04/09 12:39:13;;;;;;;5.60;4.20;;;;;;;;;;107852;272;39787;-29
2023/04/09 12:41:50;;;;;;;5.10;3.90;;;;;;;;;;107796;272;44018;-29
2023/04/09 12:44:26;;;;;;;5.50;4.10;;;;;;;;;;107844;272;42180;-29
2023/04/09 12:47:00;;;;;;;5.00;3.70;;;;;;;;;;107808;279;39935;-29
2023/04/09 12:49:36;;;;;;;5.10;3.80;;;;;;;;;;107824;272;39501;-29
2023/04/09 12:52:13;;;;;;;5.70;3.80;;;;;;;;;;107835;281;42892;-29
2023/04/09 12:54:51;;;;;;;5.30;3.90;;;;;;;;;;107833;272;42108;-29
2023/04/09 12:57:26;;;;;;;5.50;3.70;;;;;;;;;;107851;279;38841;-29
2023/04/09 13:00:04;;;;;;;5.00;3.60;;;;;;;;;;107856;279;39676;-29
2023/04/09 13:02:41;;;;;;;5.70;3.80;;;;;;;;;;107834;271;43012;-29
2023/04/09 13:05:15;;;;;;;5.00;3.60;;;;;;;;;;107853;272;42124;-29
2023/04/09 13:07:50;;;;;;;5.20;3.90;;;;;;;;;;107824;272;38784;-29
2023/04/09 13:10:24;;;;;;;5.20;3.90;;;;;;;;;;107864;272;39771;-29
2023/04/09 13:13:02;;;;;;;5.10;3.80;;;;;;;;;;107824;279;42637;-29
2023/04/09 13:15:38;;;;;;;5.40;3.80;;;;;;;;;;107845;272;42256;-29
2023/04/09 13:18:14;;;;;;;6.20;4.00;;;;;;;;;;107855;271;38806;-29
2023/04/09 13:20:51;;;;;;;5.10;3.60;;;;;;;;;;107830;279;39466;-29
2023/04/09 13:23:26;;;;;;;5.40;3.60;;;;;;;;;;107801;272;43008;-29
2023/04/09 13:26:02;;;;;;;5.00;3.90;;;;;;;;;;107875;272;41875;-29
2023/04/09 13:28:37;;;;;;;4.90;3.80;;;;;;;;;;107837;272;38894;-29
2023/04/09 13:31:13;;;;;;;5.20;3.80;;;;;;;;;;107888;272;40822;-29
2023/04/09 13:33:51;;;;;;;5.10;3.70;;;;;;;;;;107824;279;42613;-30
2023/04/09 13:36:26;;;;;;;5.40;3.90;;;;;;;;;;107845;275;42059;-29
2023/04/09 13:39:04;;;;;;;4.90;3.70;;;;;;;;;;107810;271;38894;-29
2023/04/09 13:41:38;;;;;;;5.30;3.80;;;;;;;;;;107834;271;39746;-29
2023/04/09 13:44:14;;;;;;;5.90;4.00;;;;;;;;;;107824;271;48621;-29
2023/04/09 13:46:50;;;;;;;5.00;3.70;;;;;;;;;;107836;271;42229;-29
2023/04/09 13:49:26;;;;;;;5.00;3.70;;;;;;;;;;107843;279;38918;-29
2023/04/09 13:52:03;;;;;;;5.50;4.00;;;;;;;;;;107818;279;39845;-29
2023/04/09 13:54:40;;;;;;;5.40;3.90;;;;;;;;;;107832;279;49394;-29
2023/04/09 13:57:15;;;;;;;5.70;3.80;;;;;;;;;;107858;277;42118;-29
2023/04/09 13:59:49;;;;;;;5.80;3.70;;;;;;;;;;107838;276;39048;-29
2023/04/09 14:02:24;;;;;;;5.50;4.00;;;;;;;;;;107807;271;39818;-29
2023/04/09 14:05:02;;;;;;;5.00;3.70;;;;;;;;;;107786;279;50262;-29
2023/04/09 14:07:39;;;;;;;5.30;3.80;;;;;;;;;;107839;275;43452;-29
2023/04/09 14:10:14;;;;;;;5.90;3.70;;;;;;;;;;107868;279;38846;-29
2023/04/09 14:12:51;;;;;;;5.80;3.90;;;;;;;;;;107799;272;40822;-29
2023/04/09 14:15:26;;;;;;;5.00;3.50;;;;;;;;;;107837;279;44342;-29
2023/04/09 14:18:01;;;;;;;4.90;3.70;;;;;;;;;;107840;279;42442;-29
2023/04/09 14:20:37;;;;;;;4.80;3.70;;;;;;;;;;107849;271;38910;-30
2023/04/09 14:23:13;;;;;;;5.30;3.90;;;;;;;;;;107801;272;39737;-31
2023/04/09 14:25:49;;;;;;;5.00;3.70;;;;;;;;;;107851;272;42968;-31
2023/04/09 14:28:24;;;;;;;5.30;3.70;;;;;;;;;;107824;279;42139;-30
2023/04/09 14:31:02;;;;;;;4.90;3.70;;;;;;;;;;107823;272;38771;-31
2023/04/09 14:33:40;;;;;;;4.60;3.40;;;;;;;;;;107806;279;39888;-31
2023/04/09 14:36:15;;;;;;;5.40;3.90;;;;;;;;;;107848;279;43010;-31
2023/04/09 14:38:50;;;;;;;5.10;3.60;;;;;;;;;;107906;272;42205;-31
2023/04/09 14:41:27;;;;;;;5.10;3.60;;;;;;;;;;107860;272;38696;-31
2023/04/09 14:44:03;;;;;;;5.50;3.90;;;;;;;;;;107784;275;39717;-31
2023/04/09 14:46:41;;;;;;;5.40;3.50;;;;;;;;;;107819;279;44007;-31
2023/04/09 14:49:17;;;;;;;5.00;3.70;;;;;;;;;;107851;275;42184;-31
2023/04/09 14:51:55;;;;;;;5.10;3.60;;;;;;;;;;107860;272;38754;-31
2023/04/09 14:54:32;;;;;;;4.90;3.60;;;;;;;;;;107794;272;39707;-31
2023/04/09 14:57:06;;;;;;;4.90;3.60;;;;;;;;;;107839;272;42875;-31
2023/04/09 14:59:44;;;;;;;4.80;3.50;;;;;;;;;;107854;279;42344;-31
2023/04/09 15:02:21;;;;;;;5.20;3.50;;;;;;;;;;107845;279;38786;-31
2023/04/09 15:04:57;;;;;;;4.90;3.50;;;;;;;;;;107804;275;39703;-31
2023/04/09 15:07:32;;;;;;;5.20;3.50;;;;;;;;;;107822;272;43045;-31
2023/04/09 15:10:07;;;;;;;4.70;3.50;;;;;;;;;;107752;272;175684;-31
2023/04/09 15:12:42;;;;;;;4.80;3.40;;;;;;;;;;107863;279;38625;-31
2023/04/09 15:15:18;;;;;;;5.00;3.50;;;;;;;;;;107814;272;39434;-31
2023/04/09 15:17:54;;;;;;;5.10;3.60;;;;;;;;;;107827;272;43196;-31
2023/04/09 15:20:28;;;;;;;4.90;3.50;;;;;;;;;;107877;275;42720;-31
2023/04/09 15:23:05;;;;;;;4.80;3.40;;;;;;;;;;107847;272;39030;-31
2023/04/09 15:25:42;;;;;;;5.30;3.60;;;;;;;;;;107789;279;39695;-31
2023/04/09 15:28:19;;;;;;;4.80;3.40;;;;;;;;;;107834;279;42849;-31
2023/04/09 15:30:57;;;;;;;4.90;3.30;;;;;;;;;;107845;279;42567;-31
2023/04/09 15:33:31;;;;;;;4.80;3.50;;;;;;;;;;107716;272;175649;-31
2023/04/09 15:36:10;;;;;;;4.80;3.50;;;;;;;;;;107804;279;39785;-31
2023/04/09 15:38:47;;;;;;;5.00;3.40;;;;;;;;;;107868;279;42963;-31
2023/04/09 15:41:24;;;;;;;4.80;3.30;;;;;;;;;;107837;272;42327;-31